Time;durP1;ratioP1;P1;durP2;ratioP2;P2;SDS_P1;SDS_P2;PMS_P1;PMS_P2;Temp;Humidity;BMP_temperature;BMP_pressure;BME280_temperature;BME280_humidity;BME280_pressure;Samples;Min_cycle;Max_cycle;Signal;HPM_P1;HPM_P2
2023/10/09 00:03:06;;;;;;;1999.90;999.90;;;15.70;99.90;;;;;;5056079;28;20028;-78
2023/10/09 00:06:05;;;;;;;1999.90;999.90;;;15.70;99.90;;;;;;5054056;28;20044;-78
2023/10/09 00:08:30;;;;;;;1999.90;999.90;;;15.70;99.90;;;;;;5053475;28;20033;-77
2023/10/09 00:11:19;;;;;;;1999.90;999.90;;;15.60;99.90;;;;;;5055606;28;20017;-78
2023/10/09 00:13:52;;;;;;;1999.90;999.90;;;15.60;99.90;;;;;;5055087;28;20029;-72
2023/10/09 00:16:32;;;;;;;1999.90;999.90;;;15.50;99.90;;;;;;5055746;28;20029;-78
2023/10/09 00:19:30;;;;;;;1999.90;999.90;;;15.50;99.90;;;;;;5055840;28;20032;-76
2023/10/09 00:21:56;;;;;;;1999.90;999.90;;;15.50;99.90;;;;;;5055245;28;20024;-78
2023/10/09 00:24:23;;;;;;;1999.90;999.90;;;15.40;99.90;;;;;;5054153;28;20116;-72
2023/10/09 00:26:55;;;;;;;1999.90;999.90;;;15.40;99.90;;;;;;5037052;28;20081;-72
2023/10/09 00:29:27;;;;;;;1999.90;999.90;;;15.40;99.90;;;;;;5035965;28;20133;-78
2023/10/09 00:32:06;;;;;;;1999.90;999.90;;;15.40;99.90;;;;;;5043612;28;20033;-72
2023/10/09 00:34:39;;;;;;;1999.90;999.90;;;15.40;99.90;;;;;;5055102;28;20270;-72
2023/10/09 00:37:10;;;;;;;1999.90;999.90;;;15.40;99.90;;;;;;5055479;28;20052;-72
2023/10/09 00:42:03;;;;;;;1999.90;999.90;;;15.50;99.90;;;;;;5055379;28;20028;-78
2023/10/09 00:44:37;;;;;;;1999.90;999.90;;;15.50;99.90;;;;;;5055432;28;20025;-71
2023/10/09 00:47:10;;;;;;;1999.90;999.90;;;15.40;99.90;;;;;;5054845;28;20029;-78
2023/10/09 00:49:41;;;;;;;1999.90;999.90;;;15.30;99.90;;;;;;5054548;28;20032;-72
2023/10/09 00:52:17;;;;;;;1999.90;999.90;;;15.30;99.90;;;;;;5054731;28;20040;-71
2023/10/09 00:54:44;;;;;;;1999.90;999.90;;;15.20;99.90;;;;;;5054844;28;20028;-72
2023/10/09 00:57:13;;;;;;;1999.90;999.90;;;15.20;99.90;;;;;;5054956;28;20108;-78
2023/10/09 00:59:42;;;;;;;1999.90;999.90;;;15.10;99.90;;;;;;5054114;28;20373;-78
2023/10/09 01:02:09;;;;;;;1999.90;999.90;;;15.10;99.90;;;;;;5054750;28;20029;-78
2023/10/09 01:04:41;;;;;;;1999.90;999.90;;;15.00;99.90;;;;;;5054389;28;20017;-72
2023/10/09 01:07:16;;;;;;;1999.90;999.90;;;14.90;99.90;;;;;;5054741;28;20025;-72
2023/10/09 01:09:45;;;;;;;1999.90;999.90;;;14.90;99.90;;;;;;5054239;28;20028;-78
2023/10/09 01:12:17;;;;;;;1999.90;999.90;;;15.00;99.90;;;;;;5054040;28;20025;-72
2023/10/09 01:14:46;;;;;;;1999.90;999.90;;;14.90;99.90;;;;;;5054460;28;20044;-72
2023/10/09 01:17:18;;;;;;;1999.90;999.90;;;14.90;99.90;;;;;;5054314;28;20033;-72
2023/10/09 01:19:44;;;;;;;1999.90;999.90;;;15.00;99.90;;;;;;5054580;28;20021;-72
2023/10/09 01:22:13;;;;;;;1999.90;999.90;;;14.90;99.90;;;;;;5054167;28;20040;-78
2023/10/09 01:24:39;;;;;;;1999.90;999.90;;;14.90;99.90;;;;;;5054589;28;20021;-77
2023/10/09 01:27:14;;;;;;;1999.90;999.90;;;14.90;99.90;;;;;;5033916;28;20049;-77
2023/10/09 01:29:45;;;;;;;1999.90;999.90;;;14.90;99.90;;;;;;5035653;28;20080;-78
2023/10/09 01:32:19;;;;;;;1999.90;999.90;;;14.80;99.90;;;;;;5043707;28;20025;-71
2023/10/09 01:34:48;;;;;;;1999.90;999.90;;;14.80;99.90;;;;;;5054240;28;20025;-77
2023/10/09 01:37:30;;;;;;;1999.90;999.90;;;14.80;99.90;;;;;;5054231;28;20443;-78
2023/10/09 01:40:39;;;;;;;1999.90;999.90;;;14.80;99.90;;;;;;5053881;28;20041;-77
2023/10/09 01:42:46;;;;;;;1999.90;999.90;;;14.70;99.90;;;;;;5051102;28;20041;-71
2023/10/09 01:47:51;;;;;;;1999.90;999.90;;;14.70;99.90;;;;;;5054208;28;20484;-77
2023/10/09 01:50:35;;;;;;;1999.90;999.90;;;14.80;99.90;;;;;;5053845;28;20041;-77
2023/10/09 01:53:02;;;;;;;1999.90;999.90;;;14.80;99.90;;;;;;5053440;28;20112;-77
2023/10/09 01:55:45;;;;;;;1999.90;999.90;;;15.00;99.90;;;;;;5053878;28;20025;-72
2023/10/09 01:58:32;;;;;;;1999.90;999.90;;;15.10;99.90;;;;;;5053806;28;20029;-72
2023/10/09 02:01:01;;;;;;;1999.90;999.90;;;15.20;99.90;;;;;;5053209;28;20032;-77
2023/10/09 02:03:29;;;;;;;1999.90;999.90;;;15.20;99.90;;;;;;5053495;28;20017;-78
2023/10/09 02:06:05;;;;;;;1999.90;999.90;;;15.20;99.90;;;;;;5053223;28;20486;-78
2023/10/09 02:08:35;;;;;;;1999.90;999.90;;;15.20;99.90;;;;;;5053296;28;20069;-78
2023/10/09 02:11:02;;;;;;;1999.90;999.90;;;15.10;99.90;;;;;;5052546;28;20025;-71
2023/10/09 02:13:34;;;;;;;1999.90;999.90;;;15.00;99.90;;;;;;5053634;28;20019;-78
2023/10/09 02:18:52;;;;;;;1999.90;999.90;;;14.90;99.90;;;;;;5053579;28;20083;-71
2023/10/09 02:21:28;;;;;;;1999.90;999.90;;;14.80;99.90;;;;;;5053220;28;20529;-72
2023/10/09 02:23:56;;;;;;;1999.90;999.90;;;14.90;99.90;;;;;;5053262;28;20514;-72
2023/10/09 02:26:26;;;;;;;1999.90;999.90;;;14.80;99.90;;;;;;5038709;28;20049;-72
2023/10/09 02:28:59;;;;;;;1999.90;999.90;;;14.80;99.90;;;;;;5033291;28;20021;-71
2023/10/09 02:31:40;;;;;;;1999.90;999.90;;;14.80;99.90;;;;;;5044044;28;20067;-77
2023/10/09 02:34:08;;;;;;;1999.90;999.90;;;14.80;99.90;;;;;;5033118;28;20109;-78
2023/10/09 02:36:43;;;;;;;1999.90;999.90;;;14.80;99.90;;;;;;5033413;28;20033;-72
2023/10/09 02:39:22;;;;;;;1999.90;999.90;;;14.80;99.90;;;;;;5033003;28;20033;-78
2023/10/09 02:41:50;;;;;;;1999.90;999.90;;;14.70;99.90;;;;;;5032991;28;20048;-72
2023/10/09 02:44:17;;;;;;;1999.90;999.90;;;14.70;99.90;;;;;;5033383;28;20047;-78
2023/10/09 02:46:44;;;;;;;1999.90;999.90;;;14.70;99.90;;;;;;5032716;28;20503;-77
2023/10/09 02:49:15;;;;;;;1999.90;999.90;;;14.80;99.90;;;;;;5033078;28;20026;-77
2023/10/09 02:51:47;;;;;;;1999.90;999.90;;;14.80;99.90;;;;;;5032653;28;20025;-72
2023/10/09 02:54:26;;;;;;;1999.90;999.90;;;14.80;99.90;;;;;;5032877;28;20053;-78
2023/10/09 02:59:31;;;;;;;1999.90;999.90;;;14.70;99.90;;;;;;5033420;28;20026;-77
2023/10/09 03:01:59;;;;;;;1999.90;999.90;;;14.70;99.90;;;;;;5052539;28;20040;-77
2023/10/09 03:04:30;;;;;;;1999.90;999.90;;;14.60;99.90;;;;;;5052971;28;20024;-72
2023/10/09 03:07:00;;;;;;;1999.90;999.90;;;14.60;99.90;;;;;;5052156;28;20035;-78
2023/10/09 03:09:27;;;;;;;1999.90;999.90;;;14.60;99.90;;;;;;5052585;28;20373;-78
2023/10/09 03:12:04;;;;;;;1999.90;999.90;;;14.60;99.90;;;;;;5052606;28;20387;-78
2023/10/09 03:14:37;;;;;;;1999.90;999.90;;;14.50;99.90;;;;;;5052023;28;20511;-72
2023/10/09 03:17:04;;;;;;;1999.90;999.90;;;14.50;99.90;;;;;;5051657;28;20067;-71
2023/10/09 03:19:37;;;;;;;1999.90;999.90;;;14.40;99.90;;;;;;5052434;28;20087;-77
2023/10/09 03:22:03;;;;;;;1999.90;999.90;;;14.40;99.90;;;;;;5053559;28;20072;-78
2023/10/09 03:24:30;;;;;;;1999.90;999.90;;;14.30;99.90;;;;;;5056913;28;20029;-78
2023/10/09 03:26:56;;;;;;;1999.90;999.90;;;14.20;99.90;;;;;;5037222;28;20111;-72
2023/10/09 03:29:23;;;;;;;1999.90;999.90;;;14.10;99.90;;;;;;5037313;28;20029;-71
2023/10/09 03:31:50;;;;;;;1999.90;999.90;;;14.00;99.90;;;;;;5045000;28;20040;-77
2023/10/09 03:34:18;;;;;;;1999.90;999.90;;;13.90;99.90;;;;;;5045395;28;20516;-78
2023/10/09 03:36:44;;;;;;;1999.90;999.90;;;13.90;99.90;;;;;;5036640;28;20051;-77
2023/10/09 03:39:54;;;;;;;1999.90;999.90;;;13.80;99.90;;;;;;5036234;28;20024;-71
2023/10/09 03:41:58;;;;;;;1999.90;999.90;;;13.90;99.90;;;;;;5028070;28;20496;-71
2023/10/09 03:44:28;;;;;;;1999.90;999.90;;;13.80;99.90;;;;;;5036240;28;20078;-71
2023/10/09 03:46:54;;;;;;;1999.90;999.90;;;13.90;99.90;;;;;;5034871;28;20036;-78
2023/10/09 03:49:23;;;;;;;1999.90;999.90;;;13.90;99.90;;;;;;5036082;28;20401;-77
2023/10/09 03:51:50;;;;;;;1999.90;999.90;;;13.90;99.90;;;;;;5036049;28;20029;-77
2023/10/09 03:54:20;;;;;;;1999.90;999.90;;;13.90;99.90;;;;;;5035952;28;20384;-71
2023/10/09 03:56:47;;;;;;;1999.90;999.90;;;13.90;99.90;;;;;;5035951;28;20529;-71
2023/10/09 03:59:12;;;;;;;1999.90;999.90;;;13.90;99.90;;;;;;5035798;28;20396;-77
2023/10/09 04:01:39;;;;;;;1999.90;999.90;;;14.00;99.90;;;;;;5052834;28;20444;-71
2023/10/09 04:04:07;;;;;;;1999.90;999.90;;;13.90;99.90;;;;;;5047743;28;20052;-77
2023/10/09 04:06:33;;;;;;;1999.90;999.90;;;13.90;99.90;;;;;;5048803;28;20127;-71
2023/10/09 04:14:33;;;;;;;1999.90;999.90;;;13.80;99.90;;;;;;5055888;28;20025;-71
2023/10/09 04:20:15;;;;;;;1999.90;999.90;;;13.80;99.90;;;;;;5055317;28;20024;-77
2023/10/09 04:22:39;;;;;;;1999.90;999.90;;;13.80;99.90;;;;;;5035327;28;20488;-78
2023/10/09 04:25:14;;;;;;;1999.90;999.90;;;13.80;99.90;;;;;;5034865;28;20029;-78
2023/10/09 04:27:40;;;;;;;1999.90;999.90;;;13.90;99.90;;;;;;5035884;28;20391;-78
2023/10/09 04:30:07;;;;;;;1999.90;999.90;;;13.90;99.90;;;;;;5039076;28;20116;-77
2023/10/09 04:32:34;;;;;;;1999.90;999.90;;;13.90;99.90;;;;;;5044265;28;20144;-72
2023/10/09 04:37:52;;;;;;;1999.90;999.90;;;13.90;99.90;;;;;;5035446;28;20485;-71
2023/10/09 04:43:06;;;;;;;1999.90;999.90;;;13.90;99.90;;;;;;5035421;28;20028;-77
2023/10/09 04:48:38;;;;;;;1999.90;999.90;;;13.90;99.90;;;;;;5035385;28;20032;-71
2023/10/09 04:51:34;;;;;;;1999.90;999.90;;;13.90;99.90;;;;;;5034738;28;20030;-77
2023/10/09 04:54:12;;;;;;;1999.90;999.90;;;13.90;99.90;;;;;;5034893;28;20053;-77
2023/10/09 04:56:51;;;;;;;1999.90;999.90;;;13.90;99.90;;;;;;5035101;28;20017;-71
2023/10/09 04:59:24;;;;;;;1999.90;999.90;;;13.90;99.90;;;;;;5044813;28;20017;-77
2023/10/09 05:01:57;;;;;;;1999.90;999.90;;;13.90;99.90;;;;;;5054517;28;20032;-72
2023/10/09 05:07:22;;;;;;;1999.90;999.90;;;13.80;99.90;;;;;;5054057;28;19987;-77
2023/10/09 05:10:14;;;;;;;1999.90;999.90;;;13.80;99.90;;;;;;5054298;28;20067;-78
2023/10/09 05:12:46;;;;;;;1999.90;999.90;;;13.80;99.90;;;;;;5054313;28;20021;-72
2023/10/09 05:15:13;;;;;;;1999.90;999.90;;;13.80;99.90;;;;;;5054423;28;20039;-78
2023/10/09 05:17:39;;;;;;;1999.90;999.90;;;13.80;99.90;;;;;;5046361;28;20021;-77
2023/10/09 05:22:58;;;;;;;1999.90;999.90;;;13.80;99.90;;;;;;5054208;28;20037;-77
2023/10/09 05:28:48;;;;;;;1999.90;999.90;;;13.70;99.90;;;;;;5036760;28;20043;-77
2023/10/09 05:31:15;;;;;;;1999.90;999.90;;;13.70;99.90;;;;;;5049156;28;20048;-77
2023/10/09 05:33:45;;;;;;;1999.90;999.90;;;13.60;99.90;;;;;;5050732;28;20483;-77
2023/10/09 05:41:52;;;;;;;1999.90;999.90;;;13.60;99.90;;;;;;5053623;28;20044;-77
2023/10/09 05:49:54;;;;;;;1999.90;999.90;;;13.60;99.90;;;;;;5053305;28;20120;-71
2023/10/09 05:52:32;;;;;;;1999.90;999.90;;;13.50;99.90;;;;;;5053325;28;20112;-72
2023/10/09 06:14:04;;;;;;;1999.90;999.90;;;13.20;99.90;;;;;;5065113;28;20047;-78
2023/10/09 06:19:08;;;;;;;1999.90;999.90;;;13.10;99.90;;;;;;5084024;28;20035;-72
2023/10/09 06:22:30;;;;;;;1999.90;999.90;;;13.10;99.90;;;;;;5059548;28;20029;-77
2023/10/09 06:24:33;;;;;;;1999.90;999.90;;;13.00;99.90;;;;;;5057388;28;20032;-77
2023/10/09 06:34:51;;;;;;;1999.90;999.90;;;13.10;99.90;;;;;;5061370;28;20035;-77
2023/10/09 06:37:19;;;;;;;1999.90;999.90;;;13.20;99.90;;;;;;5062528;28;20037;-77
2023/10/09 06:40:10;;;;;;;1999.90;999.90;;;13.20;99.90;;;;;;5063206;28;20025;-77
2023/10/09 06:47:41;;;;;;;1999.90;999.90;;;13.50;99.90;;;;;;5062173;28;20047;-77
2023/10/09 06:52:57;;;;;;;1999.90;999.90;;;13.60;99.90;;;;;;5057998;28;20037;-76
2023/10/09 06:55:37;;;;;;;1999.90;999.90;;;13.60;99.90;;;;;;5059673;28;20116;-72
2023/10/09 06:58:09;;;;;;;1999.90;999.90;;;13.80;99.90;;;;;;5060673;28;20326;-71
2023/10/09 07:01:19;;;;;;;1999.90;999.90;;;13.80;99.90;;;;;;5056982;28;20128;-75
2023/10/09 07:03:59;;;;;;;1999.90;999.90;;;13.90;99.90;;;;;;5061195;28;20040;-71
2023/10/09 07:22:23;;;;;;;1999.90;999.90;;;14.80;99.90;;;;;;5043363;28;20036;-71
2023/10/09 07:25:13;;;;;;;1999.90;999.90;;;14.90;99.90;;;;;;5046985;28;20036;-77
2023/10/09 07:27:53;;;;;;;1999.90;999.90;;;15.10;99.90;;;;;;5046163;28;20020;-78
2023/10/09 07:38:14;;;;;;;1999.90;999.90;;;16.60;99.90;;;;;;5046357;28;20024;-72
2023/10/09 07:40:56;;;;;;;1999.90;999.90;;;16.70;99.90;;;;;;5042707;28;20044;-77
2023/10/09 07:43:31;;;;;;;1999.90;999.90;;;16.60;99.90;;;;;;5044961;28;20086;-77
2023/10/09 07:48:25;;;;;;;1999.90;999.90;;;16.60;99.90;;;;;;5045017;28;20044;-71
2023/10/09 07:50:57;;;;;;;1999.90;999.90;;;16.60;99.90;;;;;;5044567;28;20147;-72
2023/10/09 07:53:26;;;;;;;1999.90;999.90;;;16.60;99.90;;;;;;5048484;28;20034;-75
2023/10/09 07:55:58;;;;;;;1999.90;999.90;;;16.70;99.90;;;;;;5030970;28;20515;-72
2023/10/09 07:58:25;;;;;;;1999.90;999.90;;;16.80;99.90;;;;;;5038946;28;20044;-78
2023/10/09 08:03:24;;;;;;;;;;;17.20;99.90;;;;;;5046172;28;20044;-74
2023/10/09 08:05:52;;;;;;;1999.90;999.90;;;17.40;99.90;;;;;;5042926;28;19916;-76
2023/10/09 08:08:55;;;;;;;1999.90;999.90;;;17.80;99.90;;;;;;5046503;28;20041;-72
2023/10/09 08:14:00;;;;;;;1999.90;999.90;;;21.20;99.90;;;;;;5050085;28;20036;-72
2023/10/09 08:16:36;;;;;;;1999.90;999.90;;;21.40;99.90;;;;;;5046687;28;20033;-75
2023/10/09 08:19:20;;;;;;;1999.90;999.90;;;20.80;99.90;;;;;;5043690;28;20032;-77
2023/10/09 08:22:16;;;;;;;1999.90;999.90;;;20.80;99.90;;;;;;5043854;28;20408;-76
2023/10/09 08:24:41;;;;;;;1999.90;999.90;;;22.30;99.90;;;;;;5042032;28;20044;-77
2023/10/09 08:30:28;;;;;;;1999.90;999.90;;;24.40;99.90;;;;;;5043200;28;20032;-77
2023/10/09 08:32:42;;;;;;;1999.90;999.90;;;23.60;99.90;;;;;;5042864;28;20408;-73
2023/10/09 08:37:53;;;;;;;1999.90;999.90;;;25.60;99.90;;;;;;5040192;28;20099;-73
2023/10/09 08:40:20;;;;;;;1999.90;999.90;;;26.80;99.90;;;;;;5042948;28;20408;-73
2023/10/09 08:42:53;;;;;;;1999.90;999.90;;;27.50;99.90;;;;;;5043293;28;20033;-74
2023/10/09 08:45:27;;;;;;;1999.90;999.90;;;27.70;99.90;;;;;;5045093;28;20035;-77
2023/10/09 08:47:56;;;;;;;1999.90;999.90;;;28.20;99.90;;;;;;5041746;28;20128;-76
2023/10/09 08:50:28;;;;;;;1999.90;999.90;;;28.60;99.90;;;;;;5044423;28;20029;-73
2023/10/09 08:52:55;;;;;;;1999.90;999.90;;;28.20;99.90;;;;;;5045430;28;20477;-73
2023/10/09 08:55:20;;;;;;;1999.90;999.90;;;29.20;99.90;;;;;;5045551;28;20107;-73
2023/10/09 08:57:47;;;;;;;1999.90;999.90;;;29.40;99.70;;;;;;5038059;28;20119;-77
2023/10/09 09:00:23;;;;;;;1999.90;999.90;;;30.00;98.60;;;;;;5044344;28;20518;-73
2023/10/09 09:02:52;;;;;;;1999.90;999.90;;;30.10;98.60;;;;;;5044766;28;20048;-75
2023/10/09 09:05:22;;;;;;;1999.90;999.90;;;31.10;97.70;;;;;;5045171;28;20032;-71
2023/10/09 09:07:50;;;;;;;1999.90;999.90;;;31.60;96.40;;;;;;5036658;28;20057;-71
2023/10/09 09:10:21;;;;;;;1999.90;999.90;;;31.70;95.80;;;;;;5042689;28;20024;-72
2023/10/09 09:13:00;;;;;;;1999.90;999.90;;;31.00;95.80;;;;;;5045188;28;20536;-71
2023/10/09 09:15:28;;;;;;;1999.90;999.90;;;31.60;96.40;;;;;;5043508;28;20025;-75
2023/10/09 09:18:11;;;;;;;1999.90;999.90;;;31.30;95.10;;;;;;5037278;28;20489;-71
2023/10/09 09:20:40;;;;;;;1999.90;999.90;;;31.00;95.40;;;;;;5041742;28;20041;-73
2023/10/09 09:23:12;;;;;;;1999.90;999.90;;;29.40;96.70;;;;;;5045724;28;20037;-77
2023/10/09 09:25:44;;;;;;;1999.90;999.90;;;27.50;97.80;;;;;;5044761;28;20039;-77
2023/10/09 09:28:12;;;;;;;1999.90;999.90;;;26.30;99.90;;;;;;5036657;28;20047;-78
2023/10/09 09:30:40;;;;;;;1999.90;999.90;;;25.50;99.90;;;;;;5044686;28;20020;-73
2023/10/09 09:33:39;;;;;;;1999.90;999.90;;;25.00;99.90;;;;;;5044077;28;20028;-73
2023/10/09 09:36:06;;;;;;;1999.90;999.90;;;24.60;99.90;;;;;;5043624;28;20028;-77
2023/10/09 09:38:47;;;;;;;1999.90;999.90;;;24.40;99.90;;;;;;5035198;28;20036;-78
2023/10/09 09:41:24;;;;;;;1999.90;999.90;;;24.30;99.90;;;;;;5043387;28;20033;-74
2023/10/09 09:44:01;;;;;;;1999.90;999.90;;;24.30;99.90;;;;;;5044844;28;20033;-73
2023/10/09 09:46:36;;;;;;;1999.90;999.90;;;24.10;99.90;;;;;;5040368;28;20037;-73
2023/10/09 09:49:05;;;;;;;1999.90;999.90;;;23.90;99.90;;;;;;5039820;28;20301;-76
2023/10/09 09:51:34;;;;;;;1999.90;999.90;;;24.10;99.90;;;;;;5041997;28;20035;-77
2023/10/09 09:54:02;;;;;;;1999.90;999.90;;;24.20;99.90;;;;;;5040406;28;20104;-76
2023/10/09 09:56:30;;;;;;;1999.90;999.90;;;24.30;99.90;;;;;;5040226;28;20040;-73
2023/10/09 09:59:01;;;;;;;1999.90;999.90;;;24.50;99.90;;;;;;5036140;28;20044;-73
2023/10/09 10:01:31;;;;;;;1999.90;999.90;;;24.40;99.90;;;;;;5043457;28;20029;-77
2023/10/09 10:04:14;;;;;;;1999.90;999.90;;;24.50;99.90;;;;;;5042818;28;20062;-77
2023/10/09 10:06:43;;;;;;;1999.90;999.90;;;24.70;99.90;;;;;;5039955;28;20522;-77
2023/10/09 10:09:09;;;;;;;1999.90;999.90;;;24.80;99.90;;;;;;5036759;28;20033;-77
2023/10/09 10:11:44;;;;;;;1999.90;999.90;;;24.90;99.90;;;;;;5043261;28;20036;-73
2023/10/09 10:14:28;;;;;;;1999.90;999.90;;;24.80;99.90;;;;;;5044965;28;20029;-77
2023/10/09 10:17:16;;;;;;;1999.90;999.90;;;24.90;99.90;;;;;;5041462;28;21047;-77
2023/10/09 10:19:59;;;;;;;1999.90;999.90;;;24.90;99.90;;;;;;5038264;28;20605;-77
2023/10/09 10:22:30;;;;;;;1999.90;999.90;;;24.90;99.90;;;;;;5043074;28;20032;-76
2023/10/09 10:25:02;;;;;;;1999.90;999.90;;;24.90;99.90;;;;;;5043912;28;20461;-76
2023/10/09 10:27:31;;;;;;;1999.90;999.90;;;24.90;99.90;;;;;;5036395;28;21506;-76
2023/10/09 10:30:12;;;;;;;1999.90;999.90;;;25.10;99.90;;;;;;5040815;28;20053;-77
2023/10/09 10:32:58;;;;;;;1999.90;999.90;;;25.10;99.90;;;;;;5043122;28;20028;-76
2023/10/09 10:36:07;;;;;;;1999.90;999.90;;;25.10;99.90;;;;;;5043701;28;20032;-73
2023/10/09 10:38:32;;;;;;;1999.90;999.90;;;25.20;99.90;;;;;;5029544;28;20159;-73
2023/10/09 10:41:17;;;;;;;1999.90;999.90;;;24.90;99.90;;;;;;5040033;28;20037;-77
2023/10/09 10:46:37;;;;;;;1999.90;999.90;;;24.80;99.90;;;;;;5038467;28;20040;-73
2023/10/09 10:49:20;;;;;;;1999.90;999.90;;;24.90;99.90;;;;;;5033989;28;20144;-77
2023/10/09 10:51:49;;;;;;;1999.90;999.90;;;25.10;99.90;;;;;;5036549;28;20396;-73
2023/10/09 10:57:00;;;;;;;1999.90;999.90;;;24.90;99.90;;;;;;5040475;28;20037;-77
2023/10/09 10:59:36;;;;;;;1999.90;999.90;;;24.80;99.90;;;;;;5036000;28;20036;-73
2023/10/09 11:12:42;;;;;;;1999.90;999.90;;;25.00;99.90;;;;;;5047747;28;20039;-73
2023/10/09 11:18:07;;;;;;;1999.90;999.90;;;25.10;99.90;;;;;;5037842;28;21006;-73
2023/10/09 11:20:38;;;;;;;1999.90;999.90;;;25.20;99.90;;;;;;5045799;28;20048;-77
2023/10/09 11:25:33;;;;;;;1999.90;999.90;;;25.30;99.90;;;;;;5046932;28;20083;-76
2023/10/09 11:28:15;;;;;;;1999.90;999.90;;;25.40;99.90;;;;;;5039667;28;20033;-73
2023/10/09 11:30:40;;;;;;;1999.90;999.90;;;25.60;99.90;;;;;;5046487;28;20016;-77
2023/10/09 11:33:14;;;;;;;1999.90;999.90;;;25.60;99.90;;;;;;5046018;28;20263;-73
2023/10/09 11:35:42;;;;;;;1999.90;999.90;;;25.70;99.90;;;;;;5044702;28;20036;-78
2023/10/09 11:38:21;;;;;;;1999.90;999.90;;;25.90;99.90;;;;;;5039463;28;20033;-78
2023/10/09 11:41:05;;;;;;;1999.90;999.90;;;25.70;99.90;;;;;;5045098;28;20053;-77
2023/10/09 11:43:52;;;;;;;1999.90;999.90;;;25.60;99.90;;;;;;5047478;28;20106;-74
2023/10/09 11:52:35;;;;;;;1999.90;999.90;;;26.00;99.90;;;;;;5024123;28;20514;-78
2023/10/09 11:54:35;;;;;;;1999.90;999.90;;;26.10;99.90;;;;;;5025898;28;20040;-78
2023/10/09 11:57:02;;;;;;;1999.90;999.90;;;26.20;99.90;;;;;;5018385;28;20140;-77
2023/10/09 11:59:34;;;;;;;1999.90;999.90;;;26.20;99.90;;;;;;5016760;28;20120;-78
2023/10/09 12:02:00;;;;;;;1999.90;999.90;;;26.40;99.90;;;;;;5023688;28;20054;-77
2023/10/09 12:04:30;;;;;;;1999.90;999.90;;;26.30;99.90;;;;;;5022711;28;20040;-78
2023/10/09 12:07:06;;;;;;;1999.90;999.90;;;26.40;99.90;;;;;;5018368;28;20832;-74
2023/10/09 12:09:38;;;;;;;1999.90;999.90;;;26.40;99.90;;;;;;5017592;28;20444;-73
2023/10/09 12:12:05;;;;;;;1999.90;999.90;;;26.50;99.90;;;;;;5023138;28;20060;-73
2023/10/09 12:14:37;;;;;;;1999.90;999.90;;;26.50;99.90;;;;;;5022646;28;20037;-78
2023/10/09 12:17:07;;;;;;;1999.90;999.90;;;26.70;99.90;;;;;;5017508;28;20032;-73
2023/10/09 12:19:39;;;;;;;1999.90;999.90;;;27.00;99.90;;;;;;5017937;28;20824;-73
2023/10/09 12:22:10;;;;;;;1999.90;999.90;;;27.00;99.90;;;;;;5022794;28;20039;-73
2023/10/09 12:24:37;;;;;;;1999.90;999.90;;;27.10;99.90;;;;;;5023832;28;20816;-77
2023/10/09 12:27:09;;;;;;;1999.90;999.90;;;27.10;99.90;;;;;;5019425;28;20041;-78
2023/10/09 12:29:35;;;;;;;1999.90;999.90;;;27.20;99.90;;;;;;5016553;28;20041;-79
2023/10/09 12:32:02;;;;;;;1999.90;999.90;;;27.20;99.90;;;;;;5021959;28;20149;-78
2023/10/09 12:34:30;;;;;;;1999.90;999.90;;;27.30;99.90;;;;;;5022490;28;20032;-73
2023/10/09 12:37:00;;;;;;;1999.90;999.90;;;27.40;99.90;;;;;;5017134;28;21383;-77
2023/10/09 12:39:33;;;;;;;1999.90;999.90;;;27.50;99.90;;;;;;5014702;28;20029;-78
2023/10/09 12:42:08;;;;;;;1999.90;999.90;;;27.70;99.90;;;;;;5021002;28;20056;-77
2023/10/09 12:44:38;;;;;;;1999.90;999.90;;;27.60;99.90;;;;;;5022489;28;20076;-77
2023/10/09 12:47:07;;;;;;;1999.90;999.90;;;27.80;99.90;;;;;;5017167;28;20039;-73
2023/10/09 12:49:33;;;;;;;1999.90;999.90;;;28.20;99.90;;;;;;5016313;28;20887;-76
2023/10/09 12:51:59;;;;;;;1999.90;999.90;;;28.30;99.90;;;;;;5022153;28;20065;-72
2023/10/09 12:54:28;;;;;;;1999.90;999.90;;;28.30;99.90;;;;;;5021966;28;20033;-77
2023/10/09 12:56:59;;;;;;;1999.90;999.90;;;28.30;99.90;;;;;;5018884;28;20032;-73
2023/10/09 12:59:24;;;;;;;1999.90;999.90;;;28.20;99.90;;;;;;5037762;28;20119;-72
2023/10/09 13:01:57;;;;;;;1999.90;999.90;;;28.20;99.90;;;;;;5045145;28;20041;-73
2023/10/09 13:04:24;;;;;;;1999.90;999.90;;;28.10;99.90;;;;;;5045188;28;21375;-73
2023/10/09 13:06:54;;;;;;;1999.90;999.90;;;27.90;99.20;;;;;;5041132;28;20723;-77
2023/10/09 13:09:42;;;;;;;1999.90;999.90;;;27.80;99.90;;;;;;5037090;28;20040;-77
2023/10/09 13:12:07;;;;;;;1999.90;999.90;;;28.00;99.00;;;;;;5044425;28;20040;-72
2023/10/09 13:14:35;;;;;;;1999.90;999.90;;;28.10;99.00;;;;;;5042920;28;20037;-76
2023/10/09 13:17:08;;;;;;;1999.90;999.90;;;28.40;98.60;;;;;;5039867;28;20072;-76
2023/10/09 13:19:34;;;;;;;1999.90;999.90;;;28.10;96.90;;;;;;5038516;28;20021;-77
2023/10/09 13:22:03;;;;;;;1999.90;999.90;;;28.00;96.50;;;;;;5044879;28;20051;-73
2023/10/09 13:24:29;;;;;;;1999.90;999.90;;;28.10;97.00;;;;;;5044580;28;20036;-72
2023/10/09 13:26:58;;;;;;;1999.90;999.90;;;28.30;97.00;;;;;;5041847;28;20127;-73
2023/10/09 13:29:24;;;;;;;1999.90;999.90;;;28.60;96.20;;;;;;5038880;28;20029;-76
2023/10/09 13:31:52;;;;;;;1999.90;999.90;;;28.70;96.20;;;;;;5044109;28;20057;-77
2023/10/09 13:34:18;;;;;;;1999.90;999.90;;;28.70;96.20;;;;;;5043526;28;20033;-77
2023/10/09 13:36:52;;;;;;;1999.90;999.90;;;28.70;96.40;;;;;;5040769;28;20037;-77
2023/10/09 13:39:20;;;;;;;1999.90;999.90;;;28.70;96.50;;;;;;5032173;28;20504;-73
2023/10/09 13:41:48;;;;;;;1999.90;999.90;;;28.60;96.50;;;;;;5043489;28;20025;-73
2023/10/09 13:44:13;;;;;;;1999.90;999.90;;;28.60;97.20;;;;;;5043112;28;21248;-73
2023/10/09 13:46:42;;;;;;;1999.90;999.90;;;28.80;96.00;;;;;;5040672;28;20037;-77
2023/10/09 13:49:14;;;;;;;1999.90;999.90;;;28.60;95.90;;;;;;5029337;28;20087;-77
2023/10/09 13:51:43;;;;;;;1999.90;999.90;;;28.70;96.70;;;;;;5043430;28;20051;-73
2023/10/09 13:54:20;;;;;;;1999.90;999.90;;;28.70;97.40;;;;;;5041265;28;20033;-72
2023/10/09 13:56:55;;;;;;;1999.90;999.90;;;28.70;99.00;;;;;;5040869;28;20039;-77
2023/10/09 13:59:25;;;;;;;1999.90;999.90;;;28.70;99.50;;;;;;5033382;28;20029;-77
2023/10/09 14:01:59;;;;;;;1999.90;999.90;;;28.60;99.90;;;;;;5042771;28;20399;-73
2023/10/09 14:04:25;;;;;;;1999.90;999.90;;;28.40;99.90;;;;;;5041800;28;20506;-73
2023/10/09 14:06:56;;;;;;;1999.90;999.90;;;28.50;99.90;;;;;;5038515;28;20049;-73
2023/10/09 14:09:37;;;;;;;1999.90;999.90;;;28.60;98.80;;;;;;5031219;28;20078;-77
2023/10/09 14:12:08;;;;;;;1999.90;999.90;;;28.80;98.20;;;;;;5042975;28;20033;-76
2023/10/09 14:14:37;;;;;;;1999.90;999.90;;;28.80;97.20;;;;;;5043230;28;20025;-72
2023/10/09 14:17:13;;;;;;;1999.90;999.90;;;28.80;97.60;;;;;;5035554;28;20037;-73
2023/10/09 14:19:47;;;;;;;1999.90;999.90;;;28.80;98.50;;;;;;5035807;28;20400;-73
2023/10/09 14:22:15;;;;;;;1999.90;999.90;;;28.70;98.70;;;;;;5042088;28;20029;-77
2023/10/09 14:24:45;;;;;;;1999.90;999.90;;;28.50;98.50;;;;;;5043170;28;20033;-77
2023/10/09 14:27:18;;;;;;;1999.90;999.90;;;28.40;99.90;;;;;;5036182;28;20039;-78
2023/10/09 14:29:47;;;;;;;1999.90;999.90;;;28.70;99.90;;;;;;5037791;28;20526;-73
2023/10/09 14:32:13;;;;;;;1999.90;999.90;;;28.60;99.90;;;;;;5044727;28;20290;-73
2023/10/09 14:34:46;;;;;;;1999.90;999.90;;;28.90;99.90;;;;;;5048252;28;20025;-77
2023/10/09 14:37:14;;;;;;;1999.90;999.90;;;29.40;99.90;;;;;;5037653;28;20519;-73
2023/10/09 14:39:41;;;;;;;1999.90;999.90;;;29.10;99.90;;;;;;5040094;28;20499;-78
2023/10/09 14:42:10;;;;;;;1999.90;999.90;;;28.90;99.70;;;;;;5046557;28;20029;-73
2023/10/09 14:44:40;;;;;;;1999.90;999.90;;;28.90;99.90;;;;;;5048803;28;20032;-73
2023/10/09 14:47:06;;;;;;;1999.90;999.90;;;29.10;99.90;;;;;;5040450;28;20044;-77
2023/10/09 14:49:56;;;;;;;1999.90;999.90;;;29.10;99.90;;;;;;5052916;28;20075;-72
2023/10/09 14:52:20;;;;;;;1999.90;999.90;;;29.10;99.90;;;;;;5049802;28;20223;-77
2023/10/09 14:54:46;;;;;;;1999.90;999.90;;;29.20;99.90;;;;;;5047391;28;20013;-77